الصفحة الرئيسية
METAR-TAF:

METAR-TAF

مطار :

ميندوزا, الأرجنتين

دائرة عرض: 32-50S, خط طول: 068-47W, ارتفاع: 705 متر

مراقبة الطقس الحالي

تاريخ ووقت الإصدار 58 دقيقة قبل الساعة 03:00UTC
ريح 5 عقدة من الجنوب
درجة الحرارة 19°درجة مئوية
الرطوبة 37%
ضغط 1016 hPa
الرؤية 10 كم أو أكثر
الغيوم لا تقل 1500 م ولا وجود لمزنة ركامية السحاب الأسود

METAR: SAME 240300Z 18005KT CAVOK 19/04 Q1016

زمن: 00:58 (03:58 UTC)

توقعات

تاريخ ووقت الإصدار 4ساعات و 58 دقيقة قبل الساعة 23:00UTC
التوقعات صالحة من24 الساعة 00 UTC إلى 24 الساعة 24 UTC
ريح 5 عقدة من الجنوب/الجنوب الغربي
الرؤية 10 كم أو أكثر
الغيوم لا تقل 1500 م ولا وجود لمزنة ركامية السحاب الأسود
أصبح
من 24 الساعة 15 UTC إلى 24 الساعة 17 UTC
ريح 10 عقدة من الجنوب/الجنوب الشرقي

TAF: SAME 232300Z 2400/2424 20005KT CAVOK TN12/2410Z TX24/2420Z BECMG 2415/2417 16010KT

أرصاد الطقس والتوقعات من أكثر من 4000 مطار (تقارير الطقس للمطار METAR والتنبؤ بالطقس بالمطارTAF).

المحطات المتاحة هي النقط الصفراء والحمراء على الخريطة.

حرك المؤشر فوق النقطة لمعرفة اسم المحطة.

ثم انقر لمعرفة أرصاد وتوقعات الطقس.

لتغيير الخارطة: اضغط على الأزرار الخضراء مع رمز الصليب الأسود للتكبير. على الزر الأخضر مع شرطة للتصغير، أو على الأسهم الخضراء للخرائط المجاورة.


METAR-TAF: